sensor_id;sensor_type;location;lat;lon;timestamp;temperature;humidity
51500;DHT22;39101;53.478;6.158;2022-10-14T00:02:03;9.30;99.90
51500;DHT22;39101;53.478;6.158;2022-10-14T00:04:29;9.30;99.90
51500;DHT22;39101;53.478;6.158;2022-10-14T00:06:55;9.50;99.90
51500;DHT22;39101;53.478;6.158;2022-10-14T00:09:21;9.30;99.90
51500;DHT22;39101;53.478;6.158;2022-10-14T00:11:47;9.40;99.90
51500;DHT22;39101;53.478;6.158;2022-10-14T00:14:16;9.20;99.90
51500;DHT22;39101;53.478;6.158;2022-10-14T00:16:44;9.30;99.90
51500;DHT22;39101;53.478;6.158;2022-10-14T00:19:10;9.20;99.90
51500;DHT22;39101;53.478;6.158;2022-10-14T00:21:38;9.20;99.90
51500;DHT22;39101;53.478;6.158;2022-10-14T00:24:05;9.20;99.90
51500;DHT22;39101;53.478;6.158;2022-10-14T00:26:36;9.10;99.90
51500;DHT22;39101;53.478;6.158;2022-10-14T00:29:03;9.20;99.90
51500;DHT22;39101;53.478;6.158;2022-10-14T00:31:29;9.10;99.90
51500;DHT22;39101;53.478;6.158;2022-10-14T00:33:55;9.10;99.90
51500;DHT22;39101;53.478;6.158;2022-10-14T00:36:22;9.10;99.90
51500;DHT22;39101;53.478;6.158;2022-10-14T00:38:49;9.10;99.90
51500;DHT22;39101;53.478;6.158;2022-10-14T00:41:25;9.10;99.90
51500;DHT22;39101;53.478;6.158;2022-10-14T00:43:58;9.10;99.90
51500;DHT22;39101;53.478;6.158;2022-10-14T00:46:26;9.10;99.90
51500;DHT22;39101;53.478;6.158;2022-10-14T00:48:52;9.10;99.90
51500;DHT22;39101;53.478;6.158;2022-10-14T00:51:18;9.00;99.90
51500;DHT22;39101;53.478;6.158;2022-10-14T00:53:44;9.00;99.90
51500;DHT22;39101;53.478;6.158;2022-10-14T00:56:13;9.20;99.90
51500;DHT22;39101;53.478;6.158;2022-10-14T00:58:41;9.00;99.90
51500;DHT22;39101;53.478;6.158;2022-10-14T01:01:08;9.00;99.90
51500;DHT22;39101;53.478;6.158;2022-10-14T01:03:33;9.00;99.90
51500;DHT22;39101;53.478;6.158;2022-10-14T01:08:57;9.00;99.90
51500;DHT22;39101;53.478;6.158;2022-10-14T01:11:38;9.00;99.90
51500;DHT22;39101;53.478;6.158;2022-10-14T01:14:12;9.00;99.90
51500;DHT22;39101;53.478;6.158;2022-10-14T01:16:50;9.00;99.90
51500;DHT22;39101;53.478;6.158;2022-10-14T01:22:28;8.90;99.90
51500;DHT22;39101;53.478;6.158;2022-10-14T01:30:40;8.90;99.90
51500;DHT22;39101;53.478;6.158;2022-10-14T01:33:15;8.90;99.90
51500;DHT22;39101;53.478;6.158;2022-10-14T01:35:47;8.90;99.90
51500;DHT22;39101;53.478;6.158;2022-10-14T01:38:34;8.90;99.90
51500;DHT22;39101;53.478;6.158;2022-10-14T01:41:09;8.90;99.90
51500;DHT22;39101;53.478;6.158;2022-10-14T01:43:37;9.00;99.90
51500;DHT22;39101;53.478;6.158;2022-10-14T01:46:05;8.90;99.90
51500;DHT22;39101;53.478;6.158;2022-10-14T01:48:36;8.90;99.90
51500;DHT22;39101;53.478;6.158;2022-10-14T01:51:09;8.90;99.90
51500;DHT22;39101;53.478;6.158;2022-10-14T01:53:39;9.00;99.90
51500;DHT22;39101;53.478;6.158;2022-10-14T01:56:07;8.90;99.90
51500;DHT22;39101;53.478;6.158;2022-10-14T01:58:35;8.90;99.90
51500;DHT22;39101;53.478;6.158;2022-10-14T02:01:03;8.90;99.90
51500;DHT22;39101;53.478;6.158;2022-10-14T02:03:46;8.90;99.90
51500;DHT22;39101;53.478;6.158;2022-10-14T02:06:20;8.80;99.90
51500;DHT22;39101;53.478;6.158;2022-10-14T02:11:49;8.90;99.90
51500;DHT22;39101;53.478;6.158;2022-10-14T02:14:53;8.80;99.90
51500;DHT22;39101;53.478;6.158;2022-10-14T02:20:28;8.80;99.90
51500;DHT22;39101;53.478;6.158;2022-10-14T02:23:01;8.80;99.90
51500;DHT22;39101;53.478;6.158;2022-10-14T02:25:32;8.90;99.90
51500;DHT22;39101;53.478;6.158;2022-10-14T02:28:00;8.90;99.90
51500;DHT22;39101;53.478;6.158;2022-10-14T02:30:30;8.90;99.90
51500;DHT22;39101;53.478;6.158;2022-10-14T02:32:57;8.90;99.90
51500;DHT22;39101;53.478;6.158;2022-10-14T02:35:24;8.90;99.90
51500;DHT22;39101;53.478;6.158;2022-10-14T02:37:51;8.80;99.90
51500;DHT22;39101;53.478;6.158;2022-10-14T02:40:28;8.90;99.90
51500;DHT22;39101;53.478;6.158;2022-10-14T02:42:55;8.80;99.90
51500;DHT22;39101;53.478;6.158;2022-10-14T02:45:24;8.80;99.90
51500;DHT22;39101;53.478;6.158;2022-10-14T02:47:50;8.80;99.90
51500;DHT22;39101;53.478;6.158;2022-10-14T02:50:16;8.80;99.90
51500;DHT22;39101;53.478;6.158;2022-10-14T02:52:44;8.70;99.90
51500;DHT22;39101;53.478;6.158;2022-10-14T02:55:09;8.70;99.90
51500;DHT22;39101;53.478;6.158;2022-10-14T02:57:35;8.70;99.90
51500;DHT22;39101;53.478;6.158;2022-10-14T03:00:01;8.60;99.90
51500;DHT22;39101;53.478;6.158;2022-10-14T03:02:26;8.60;99.90
51500;DHT22;39101;53.478;6.158;2022-10-14T03:04:52;8.60;99.90
51500;DHT22;39101;53.478;6.158;2022-10-14T03:07:18;8.50;99.90
51500;DHT22;39101;53.478;6.158;2022-10-14T03:09:43;8.50;99.90
51500;DHT22;39101;53.478;6.158;2022-10-14T03:12:09;8.60;99.90
51500;DHT22;39101;53.478;6.158;2022-10-14T03:14:34;8.80;99.90
51500;DHT22;39101;53.478;6.158;2022-10-14T03:17:00;8.60;99.90
51500;DHT22;39101;53.478;6.158;2022-10-14T03:19:26;8.80;99.90
51500;DHT22;39101;53.478;6.158;2022-10-14T03:21:51;8.70;99.90
51500;DHT22;39101;53.478;6.158;2022-10-14T03:24:17;8.70;99.90
51500;DHT22;39101;53.478;6.158;2022-10-14T03:26:43;8.70;99.90
51500;DHT22;39101;53.478;6.158;2022-10-14T03:29:08;8.70;99.90
51500;DHT22;39101;53.478;6.158;2022-10-14T03:31:34;8.70;99.90
51500;DHT22;39101;53.478;6.158;2022-10-14T03:33:59;8.70;99.90
51500;DHT22;39101;53.478;6.158;2022-10-14T03:36:25;8.60;99.90
51500;DHT22;39101;53.478;6.158;2022-10-14T03:38:51;8.60;99.90
51500;DHT22;39101;53.478;6.158;2022-10-14T03:41:16;8.70;99.90
51500;DHT22;39101;53.478;6.158;2022-10-14T03:43:42;8.60;99.90
51500;DHT22;39101;53.478;6.158;2022-10-14T03:46:07;8.60;99.90
51500;DHT22;39101;53.478;6.158;2022-10-14T03:48:33;8.60;99.90
51500;DHT22;39101;53.478;6.158;2022-10-14T03:50:59;8.60;99.90
51500;DHT22;39101;53.478;6.158;2022-10-14T03:53:24;8.60;99.90
51500;DHT22;39101;53.478;6.158;2022-10-14T03:55:50;8.60;99.90
51500;DHT22;39101;53.478;6.158;2022-10-14T03:58:16;8.60;99.90
51500;DHT22;39101;53.478;6.158;2022-10-14T04:00:42;8.60;99.90
51500;DHT22;39101;53.478;6.158;2022-10-14T04:03:07;8.60;99.90
51500;DHT22;39101;53.478;6.158;2022-10-14T04:05:33;8.70;99.90
51500;DHT22;39101;53.478;6.158;2022-10-14T04:08:00;8.70;99.90
51500;DHT22;39101;53.478;6.158;2022-10-14T04:10:25;8.70;99.90
51500;DHT22;39101;53.478;6.158;2022-10-14T04:12:55;8.70;99.90
51500;DHT22;39101;53.478;6.158;2022-10-14T04:15:20;8.70;99.90
51500;DHT22;39101;53.478;6.158;2022-10-14T04:17:47;8.70;99.90
51500;DHT22;39101;53.478;6.158;2022-10-14T04:20:13;8.80;99.90
51500;DHT22;39101;53.478;6.158;2022-10-14T04:22:39;8.80;99.90
51500;DHT22;39101;53.478;6.158;2022-10-14T04:25:05;8.80;99.90
51500;DHT22;39101;53.478;6.158;2022-10-14T04:27:31;8.80;99.90
51500;DHT22;39101;53.478;6.158;2022-10-14T04:29:57;8.80;99.90
51500;DHT22;39101;53.478;6.158;2022-10-14T04:32:23;9.00;99.90
51500;DHT22;39101;53.478;6.158;2022-10-14T04:34:49;8.90;99.90
51500;DHT22;39101;53.478;6.158;2022-10-14T04:37:14;8.80;99.90
51500;DHT22;39101;53.478;6.158;2022-10-14T04:39:40;9.00;99.90
51500;DHT22;39101;53.478;6.158;2022-10-14T04:42:06;9.00;99.90
51500;DHT22;39101;53.478;6.158;2022-10-14T04:44:31;9.20;99.90
51500;DHT22;39101;53.478;6.158;2022-10-14T04:46:57;9.10;99.90
51500;DHT22;39101;53.478;6.158;2022-10-14T04:49:23;9.10;99.90
51500;DHT22;39101;53.478;6.158;2022-10-14T04:51:49;9.10;99.90
51500;DHT22;39101;53.478;6.158;2022-10-14T04:54:15;9.10;99.90
51500;DHT22;39101;53.478;6.158;2022-10-14T04:56:40;9.20;99.90
51500;DHT22;39101;53.478;6.158;2022-10-14T04:59:06;9.10;99.90
51500;DHT22;39101;53.478;6.158;2022-10-14T05:01:32;9.10;99.90
51500;DHT22;39101;53.478;6.158;2022-10-14T05:03:57;9.10;99.90
51500;DHT22;39101;53.478;6.158;2022-10-14T05:06:23;9.10;99.90
51500;DHT22;39101;53.478;6.158;2022-10-14T05:08:49;9.10;99.90
51500;DHT22;39101;53.478;6.158;2022-10-14T05:11:14;9.20;99.90
51500;DHT22;39101;53.478;6.158;2022-10-14T05:13:40;9.20;99.90
51500;DHT22;39101;53.478;6.158;2022-10-14T05:16:06;9.20;99.90
51500;DHT22;39101;53.478;6.158;2022-10-14T05:18:33;9.20;99.90
51500;DHT22;39101;53.478;6.158;2022-10-14T05:20:59;9.20;99.90
51500;DHT22;39101;53.478;6.158;2022-10-14T05:23:25;9.30;99.90
51500;DHT22;39101;53.478;6.158;2022-10-14T05:25:51;9.30;99.90
51500;DHT22;39101;53.478;6.158;2022-10-14T05:28:17;9.30;99.90
51500;DHT22;39101;53.478;6.158;2022-10-14T05:30:43;9.40;99.90
51500;DHT22;39101;53.478;6.158;2022-10-14T05:33:09;9.40;99.90
51500;DHT22;39101;53.478;6.158;2022-10-14T05:35:35;9.40;99.90
51500;DHT22;39101;53.478;6.158;2022-10-14T05:38:02;9.40;99.90
51500;DHT22;39101;53.478;6.158;2022-10-14T05:40:28;9.40;99.90
51500;DHT22;39101;53.478;6.158;2022-10-14T05:42:53;9.50;99.90
51500;DHT22;39101;53.478;6.158;2022-10-14T05:45:19;9.50;99.90
51500;DHT22;39101;53.478;6.158;2022-10-14T05:47:45;9.50;99.90
51500;DHT22;39101;53.478;6.158;2022-10-14T05:50:11;9.50;99.90
51500;DHT22;39101;53.478;6.158;2022-10-14T05:52:37;9.60;99.90
51500;DHT22;39101;53.478;6.158;2022-10-14T05:55:08;9.50;99.90
51500;DHT22;39101;53.478;6.158;2022-10-14T05:57:33;9.50;99.90
51500;DHT22;39101;53.478;6.158;2022-10-14T06:00:00;9.50;99.90
51500;DHT22;39101;53.478;6.158;2022-10-14T06:02:25;9.50;99.90
51500;DHT22;39101;53.478;6.158;2022-10-14T06:04:51;9.50;99.90
51500;DHT22;39101;53.478;6.158;2022-10-14T06:07:16;9.50;99.90
51500;DHT22;39101;53.478;6.158;2022-10-14T06:09:42;9.50;99.90
51500;DHT22;39101;53.478;6.158;2022-10-14T06:12:09;9.50;99.90
51500;DHT22;39101;53.478;6.158;2022-10-14T06:14:35;9.50;99.90
51500;DHT22;39101;53.478;6.158;2022-10-14T06:17:03;9.50;99.90
51500;DHT22;39101;53.478;6.158;2022-10-14T06:19:30;9.50;99.90
51500;DHT22;39101;53.478;6.158;2022-10-14T06:21:56;9.60;99.90
51500;DHT22;39101;53.478;6.158;2022-10-14T06:24:21;9.50;99.90
51500;DHT22;39101;53.478;6.158;2022-10-14T06:26:47;9.50;99.90
51500;DHT22;39101;53.478;6.158;2022-10-14T06:29:13;9.50;99.90
51500;DHT22;39101;53.478;6.158;2022-10-14T06:31:39;9.50;99.90
51500;DHT22;39101;53.478;6.158;2022-10-14T06:34:05;9.50;99.90
51500;DHT22;39101;53.478;6.158;2022-10-14T06:36:32;9.50;99.90
51500;DHT22;39101;53.478;6.158;2022-10-14T06:38:57;9.50;99.90
51500;DHT22;39101;53.478;6.158;2022-10-14T06:41:23;9.60;99.90
51500;DHT22;39101;53.478;6.158;2022-10-14T06:43:49;9.60;99.90
51500;DHT22;39101;53.478;6.158;2022-10-14T06:46:15;9.60;99.90
51500;DHT22;39101;53.478;6.158;2022-10-14T06:48:40;9.60;99.90
51500;DHT22;39101;53.478;6.158;2022-10-14T06:51:06;9.60;99.90
51500;DHT22;39101;53.478;6.158;2022-10-14T06:53:32;9.60;99.90
51500;DHT22;39101;53.478;6.158;2022-10-14T06:56:02;9.50;99.90
51500;DHT22;39101;53.478;6.158;2022-10-14T06:58:30;9.50;99.90
51500;DHT22;39101;53.478;6.158;2022-10-14T07:01:06;9.50;99.90
51500;DHT22;39101;53.478;6.158;2022-10-14T07:03:36;9.60;99.90
51500;DHT22;39101;53.478;6.158;2022-10-14T07:06:04;9.50;99.90
51500;DHT22;39101;53.478;6.158;2022-10-14T07:08:31;9.50;99.90
51500;DHT22;39101;53.478;6.158;2022-10-14T07:10:56;9.60;99.90
51500;DHT22;39101;53.478;6.158;2022-10-14T07:13:22;9.50;99.90
51500;DHT22;39101;53.478;6.158;2022-10-14T07:15:48;9.60;99.90
51500;DHT22;39101;53.478;6.158;2022-10-14T07:18:15;9.60;99.90
51500;DHT22;39101;53.478;6.158;2022-10-14T07:20:41;9.80;99.90
51500;DHT22;39101;53.478;6.158;2022-10-14T07:23:07;9.80;99.90
51500;DHT22;39101;53.478;6.158;2022-10-14T07:25:32;9.80;99.90
51500;DHT22;39101;53.478;6.158;2022-10-14T07:27:58;9.70;99.90
51500;DHT22;39101;53.478;6.158;2022-10-14T07:30:24;9.80;99.90
51500;DHT22;39101;53.478;6.158;2022-10-14T07:32:50;9.80;99.90
51500;DHT22;39101;53.478;6.158;2022-10-14T07:35:16;9.80;99.90
51500;DHT22;39101;53.478;6.158;2022-10-14T07:37:44;9.80;99.90
51500;DHT22;39101;53.478;6.158;2022-10-14T07:40:10;9.90;99.90
51500;DHT22;39101;53.478;6.158;2022-10-14T07:42:36;10.00;99.90
51500;DHT22;39101;53.478;6.158;2022-10-14T07:45:03;10.00;99.90
51500;DHT22;39101;53.478;6.158;2022-10-14T07:47:29;10.00;99.90
51500;DHT22;39101;53.478;6.158;2022-10-14T07:49:57;10.00;99.90
51500;DHT22;39101;53.478;6.158;2022-10-14T07:52:22;10.00;99.90
51500;DHT22;39101;53.478;6.158;2022-10-14T07:54:48;10.00;99.90
51500;DHT22;39101;53.478;6.158;2022-10-14T07:57:14;10.00;99.90
51500;DHT22;39101;53.478;6.158;2022-10-14T07:59:41;10.00;99.90
51500;DHT22;39101;53.478;6.158;2022-10-14T08:02:06;10.10;99.90
51500;DHT22;39101;53.478;6.158;2022-10-14T08:04:32;10.10;99.90
51500;DHT22;39101;53.478;6.158;2022-10-14T08:06:57;10.10;99.90
51500;DHT22;39101;53.478;6.158;2022-10-14T08:09:23;10.20;99.90
51500;DHT22;39101;53.478;6.158;2022-10-14T08:11:49;10.20;99.90
51500;DHT22;39101;53.478;6.158;2022-10-14T08:14:15;10.20;99.90
51500;DHT22;39101;53.478;6.158;2022-10-14T08:16:41;10.20;99.90
51500;DHT22;39101;53.478;6.158;2022-10-14T08:19:09;10.20;99.90
51500;DHT22;39101;53.478;6.158;2022-10-14T08:21:35;10.30;99.90
51500;DHT22;39101;53.478;6.158;2022-10-14T08:24:01;10.20;99.90
51500;DHT22;39101;53.478;6.158;2022-10-14T08:28:56;10.30;99.90
51500;DHT22;39101;53.478;6.158;2022-10-14T08:31:22;10.30;99.90
51500;DHT22;39101;53.478;6.158;2022-10-14T08:33:49;10.30;99.90
51500;DHT22;39101;53.478;6.158;2022-10-14T08:36:15;10.30;99.90
51500;DHT22;39101;53.478;6.158;2022-10-14T08:38:41;10.30;99.90
51500;DHT22;39101;53.478;6.158;2022-10-14T08:43:48;10.40;99.90
51500;DHT22;39101;53.478;6.158;2022-10-14T08:51:50;10.50;99.90
51500;DHT22;39101;53.478;6.158;2022-10-14T08:54:39;10.50;99.90
51500;DHT22;39101;53.478;6.158;2022-10-14T08:57:11;10.50;99.90
51500;DHT22;39101;53.478;6.158;2022-10-14T08:59:40;10.50;99.90
51500;DHT22;39101;53.478;6.158;2022-10-14T09:04:50;10.60;99.90
51500;DHT22;39101;53.478;6.158;2022-10-14T09:07:18;10.60;99.90
51500;DHT22;39101;53.478;6.158;2022-10-14T09:09:47;10.60;99.90
51500;DHT22;39101;53.478;6.158;2022-10-14T09:12:18;10.70;99.90
51500;DHT22;39101;53.478;6.158;2022-10-14T09:14:53;10.70;99.90
51500;DHT22;39101;53.478;6.158;2022-10-14T09:17:25;10.80;99.90
51500;DHT22;39101;53.478;6.158;2022-10-14T09:23:09;10.90;99.90
51500;DHT22;39101;53.478;6.158;2022-10-14T09:25:40;10.90;99.90
51500;DHT22;39101;53.478;6.158;2022-10-14T09:28:10;11.00;99.90
51500;DHT22;39101;53.478;6.158;2022-10-14T09:30:37;11.10;99.90
51500;DHT22;39101;53.478;6.158;2022-10-14T09:33:05;11.10;99.90
51500;DHT22;39101;53.478;6.158;2022-10-14T09:35:40;11.10;99.90
51500;DHT22;39101;53.478;6.158;2022-10-14T09:38:06;11.20;99.90
51500;DHT22;39101;53.478;6.158;2022-10-14T09:40:44;11.20;99.90
51500;DHT22;39101;53.478;6.158;2022-10-14T09:43:14;11.30;99.90
51500;DHT22;39101;53.478;6.158;2022-10-14T09:46:07;11.30;99.90
51500;DHT22;39101;53.478;6.158;2022-10-14T09:48:47;11.30;99.90
51500;DHT22;39101;53.478;6.158;2022-10-14T09:51:27;11.30;99.90
51500;DHT22;39101;53.478;6.158;2022-10-14T09:53:56;11.30;99.90
51500;DHT22;39101;53.478;6.158;2022-10-14T09:56:30;11.30;99.90
51500;DHT22;39101;53.478;6.158;2022-10-14T09:58:57;11.30;99.90
51500;DHT22;39101;53.478;6.158;2022-10-14T10:01:28;11.30;99.90
51500;DHT22;39101;53.478;6.158;2022-10-14T10:03:54;11.40;99.90
51500;DHT22;39101;53.478;6.158;2022-10-14T10:06:23;11.40;99.90
51500;DHT22;39101;53.478;6.158;2022-10-14T10:11:36;11.50;99.90
51500;DHT22;39101;53.478;6.158;2022-10-14T10:14:28;11.50;99.90
51500;DHT22;39101;53.478;6.158;2022-10-14T10:19:34;11.70;99.90
51500;DHT22;39101;53.478;6.158;2022-10-14T10:24:45;11.90;99.90
51500;DHT22;39101;53.478;6.158;2022-10-14T10:27:34;11.80;99.90
51500;DHT22;39101;53.478;6.158;2022-10-14T10:30:20;12.00;99.90
51500;DHT22;39101;53.478;6.158;2022-10-14T10:38:41;12.20;99.90
51500;DHT22;39101;53.478;6.158;2022-10-14T10:46:28;12.20;99.90
51500;DHT22;39101;53.478;6.158;2022-10-14T10:57:22;12.10;99.90
51500;DHT22;39101;53.478;6.158;2022-10-14T11:02:52;12.10;99.90
51500;DHT22;39101;53.478;6.158;2022-10-14T11:05:36;12.20;99.90
51500;DHT22;39101;53.478;6.158;2022-10-14T11:11:30;12.20;99.90
51500;DHT22;39101;53.478;6.158;2022-10-14T11:14:42;12.10;99.90
51500;DHT22;39101;53.478;6.158;2022-10-14T11:17:22;12.20;99.90
51500;DHT22;39101;53.478;6.158;2022-10-14T11:28:45;12.30;99.90
51500;DHT22;39101;53.478;6.158;2022-10-14T11:34:04;12.30;99.90
51500;DHT22;39101;53.478;6.158;2022-10-14T11:36:48;12.30;99.90
51500;DHT22;39101;53.478;6.158;2022-10-14T11:42:02;12.40;99.90
51500;DHT22;39101;53.478;6.158;2022-10-14T11:44:37;12.50;99.90
51500;DHT22;39101;53.478;6.158;2022-10-14T11:47:31;12.50;99.90
51500;DHT22;39101;53.478;6.158;2022-10-14T11:50:16;12.60;99.90
51500;DHT22;39101;53.478;6.158;2022-10-14T11:52:56;12.70;99.90
51500;DHT22;39101;53.478;6.158;2022-10-14T11:55:25;12.70;99.90
51500;DHT22;39101;53.478;6.158;2022-10-14T11:57:58;12.70;99.90
51500;DHT22;39101;53.478;6.158;2022-10-14T12:00:29;12.80;99.90
51500;DHT22;39101;53.478;6.158;2022-10-14T12:03:11;12.80;99.90
51500;DHT22;39101;53.478;6.158;2022-10-14T12:11:10;12.90;99.90
51500;DHT22;39101;53.478;6.158;2022-10-14T12:13:46;12.90;99.90
51500;DHT22;39101;53.478;6.158;2022-10-14T12:16:15;12.90;99.90
51500;DHT22;39101;53.478;6.158;2022-10-14T12:18:42;12.90;99.90
51500;DHT22;39101;53.478;6.158;2022-10-14T12:24:12;12.90;99.90
51500;DHT22;39101;53.478;6.158;2022-10-14T12:26:49;12.90;99.90
51500;DHT22;39101;53.478;6.158;2022-10-14T12:29:19;12.90;99.90
51500;DHT22;39101;53.478;6.158;2022-10-14T12:32:27;12.90;99.90
51500;DHT22;39101;53.478;6.158;2022-10-14T12:35:00;12.90;99.90
51500;DHT22;39101;53.478;6.158;2022-10-14T12:42:34;12.90;99.90
51500;DHT22;39101;53.478;6.158;2022-10-14T12:45:12;12.90;99.90
51500;DHT22;39101;53.478;6.158;2022-10-14T12:47:39;12.90;99.90
51500;DHT22;39101;53.478;6.158;2022-10-14T12:52:36;12.90;99.90
51500;DHT22;39101;53.478;6.158;2022-10-14T12:55:14;13.00;99.90
51500;DHT22;39101;53.478;6.158;2022-10-14T12:57:40;13.00;99.90
51500;DHT22;39101;53.478;6.158;2022-10-14T13:02:52;13.00;99.90
51500;DHT22;39101;53.478;6.158;2022-10-14T13:19:00;13.10;99.90
51500;DHT22;39101;53.478;6.158;2022-10-14T13:32:05;13.00;99.90
51500;DHT22;39101;53.478;6.158;2022-10-14T13:34:58;13.00;99.90
51500;DHT22;39101;53.478;6.158;2022-10-14T13:43:00;13.00;99.90
51500;DHT22;39101;53.478;6.158;2022-10-14T13:45:33;13.10;99.90
51500;DHT22;39101;53.478;6.158;2022-10-14T13:48:00;13.10;99.90
51500;DHT22;39101;53.478;6.158;2022-10-14T13:50:32;13.10;99.90
51500;DHT22;39101;53.478;6.158;2022-10-14T13:53:03;13.00;99.90
51500;DHT22;39101;53.478;6.158;2022-10-14T13:55:30;13.00;99.90
51500;DHT22;39101;53.478;6.158;2022-10-14T13:58:16;13.00;99.90
51500;DHT22;39101;53.478;6.158;2022-10-14T14:05:57;13.00;99.90
51500;DHT22;39101;53.478;6.158;2022-10-14T14:08:27;13.00;99.90
51500;DHT22;39101;53.478;6.158;2022-10-14T14:10:56;13.00;99.90
51500;DHT22;39101;53.478;6.158;2022-10-14T14:13:24;13.00;99.90
51500;DHT22;39101;53.478;6.158;2022-10-14T14:15:52;13.00;99.90
51500;DHT22;39101;53.478;6.158;2022-10-14T14:18:27;13.00;99.90
51500;DHT22;39101;53.478;6.158;2022-10-14T14:20:58;13.00;99.90
51500;DHT22;39101;53.478;6.158;2022-10-14T14:23:27;13.00;99.90
51500;DHT22;39101;53.478;6.158;2022-10-14T14:25:53;13.00;99.90
51500;DHT22;39101;53.478;6.158;2022-10-14T14:28:20;13.00;99.90
51500;DHT22;39101;53.478;6.158;2022-10-14T14:30:55;13.00;99.90
51500;DHT22;39101;53.478;6.158;2022-10-14T14:33:32;13.00;99.90
51500;DHT22;39101;53.478;6.158;2022-10-14T14:36:03;13.00;99.90
51500;DHT22;39101;53.478;6.158;2022-10-14T14:38:33;13.00;99.90
51500;DHT22;39101;53.478;6.158;2022-10-14T14:43:26;13.00;99.90
51500;DHT22;39101;53.478;6.158;2022-10-14T14:45:52;13.00;99.90
51500;DHT22;39101;53.478;6.158;2022-10-14T14:48:18;13.00;99.90
51500;DHT22;39101;53.478;6.158;2022-10-14T14:50:45;13.00;99.90
51500;DHT22;39101;53.478;6.158;2022-10-14T14:53:16;13.10;99.90
51500;DHT22;39101;53.478;6.158;2022-10-14T14:55:44;13.10;99.90
51500;DHT22;39101;53.478;6.158;2022-10-14T15:00:45;13.10;99.90
51500;DHT22;39101;53.478;6.158;2022-10-14T15:03:11;13.10;99.90
51500;DHT22;39101;53.478;6.158;2022-10-14T15:05:37;13.10;99.90
51500;DHT22;39101;53.478;6.158;2022-10-14T15:08:03;13.10;99.90
51500;DHT22;39101;53.478;6.158;2022-10-14T15:10:29;13.10;99.90
51500;DHT22;39101;53.478;6.158;2022-10-14T15:12:58;13.10;99.90
51500;DHT22;39101;53.478;6.158;2022-10-14T15:15:28;13.00;99.90
51500;DHT22;39101;53.478;6.158;2022-10-14T15:18:20;13.10;99.90
51500;DHT22;39101;53.478;6.158;2022-10-14T15:20:49;13.10;99.90
51500;DHT22;39101;53.478;6.158;2022-10-14T15:23:40;13.10;99.90
51500;DHT22;39101;53.478;6.158;2022-10-14T15:31:35;13.10;99.90
51500;DHT22;39101;53.478;6.158;2022-10-14T15:34:01;13.10;99.90
51500;DHT22;39101;53.478;6.158;2022-10-14T15:36:30;13.20;99.90
51500;DHT22;39101;53.478;6.158;2022-10-14T15:38:56;13.10;99.90
51500;DHT22;39101;53.478;6.158;2022-10-14T15:41:27;13.20;99.90
51500;DHT22;39101;53.478;6.158;2022-10-14T15:43:53;13.20;99.90
51500;DHT22;39101;53.478;6.158;2022-10-14T15:46:21;13.20;99.90
51500;DHT22;39101;53.478;6.158;2022-10-14T15:49:27;13.20;99.90
51500;DHT22;39101;53.478;6.158;2022-10-14T15:51:54;13.20;99.90
51500;DHT22;39101;53.478;6.158;2022-10-14T15:54:20;13.20;99.90
51500;DHT22;39101;53.478;6.158;2022-10-14T15:56:46;13.20;99.90
51500;DHT22;39101;53.478;6.158;2022-10-14T15:59:12;13.20;99.90
51500;DHT22;39101;53.478;6.158;2022-10-14T16:01:41;13.20;99.90
51500;DHT22;39101;53.478;6.158;2022-10-14T16:04:15;13.20;99.90
51500;DHT22;39101;53.478;6.158;2022-10-14T16:06:42;13.30;99.90
51500;DHT22;39101;53.478;6.158;2022-10-14T16:09:08;13.30;99.90
51500;DHT22;39101;53.478;6.158;2022-10-14T16:11:34;13.30;99.90
51500;DHT22;39101;53.478;6.158;2022-10-14T16:13:59;13.30;99.90
51500;DHT22;39101;53.478;6.158;2022-10-14T16:16:33;13.30;99.90
51500;DHT22;39101;53.478;6.158;2022-10-14T16:19:00;13.30;99.90
51500;DHT22;39101;53.478;6.158;2022-10-14T16:21:27;13.30;99.90
51500;DHT22;39101;53.478;6.158;2022-10-14T16:23:54;13.30;99.90
51500;DHT22;39101;53.478;6.158;2022-10-14T16:26:20;13.30;99.90
51500;DHT22;39101;53.478;6.158;2022-10-14T16:28:46;13.30;99.90
51500;DHT22;39101;53.478;6.158;2022-10-14T16:31:13;13.30;99.90
51500;DHT22;39101;53.478;6.158;2022-10-14T16:33:39;13.40;99.90
51500;DHT22;39101;53.478;6.158;2022-10-14T16:36:04;13.30;99.90
51500;DHT22;39101;53.478;6.158;2022-10-14T16:38:31;13.30;99.90
51500;DHT22;39101;53.478;6.158;2022-10-14T16:41:01;13.30;99.90
51500;DHT22;39101;53.478;6.158;2022-10-14T16:43:28;13.40;99.90
51500;DHT22;39101;53.478;6.158;2022-10-14T16:45:57;13.30;99.90
51500;DHT22;39101;53.478;6.158;2022-10-14T16:48:24;13.30;99.90
51500;DHT22;39101;53.478;6.158;2022-10-14T16:50:51;13.40;99.90
51500;DHT22;39101;53.478;6.158;2022-10-14T16:53:17;13.40;99.90
51500;DHT22;39101;53.478;6.158;2022-10-14T16:56:02;13.40;99.90
51500;DHT22;39101;53.478;6.158;2022-10-14T16:58:28;13.40;99.90
51500;DHT22;39101;53.478;6.158;2022-10-14T17:00:54;13.50;99.90
51500;DHT22;39101;53.478;6.158;2022-10-14T17:03:20;13.50;99.90
51500;DHT22;39101;53.478;6.158;2022-10-14T17:05:46;13.50;99.90
51500;DHT22;39101;53.478;6.158;2022-10-14T17:08:12;13.50;99.90
51500;DHT22;39101;53.478;6.158;2022-10-14T17:10:38;13.60;99.90
51500;DHT22;39101;53.478;6.158;2022-10-14T17:13:04;13.60;99.90
51500;DHT22;39101;53.478;6.158;2022-10-14T17:15:30;13.50;99.90
51500;DHT22;39101;53.478;6.158;2022-10-14T17:17:55;13.60;99.90
51500;DHT22;39101;53.478;6.158;2022-10-14T17:20:21;13.60;99.90
51500;DHT22;39101;53.478;6.158;2022-10-14T17:22:47;13.60;99.90
51500;DHT22;39101;53.478;6.158;2022-10-14T17:25:14;13.60;99.90
51500;DHT22;39101;53.478;6.158;2022-10-14T17:27:42;13.60;99.90
51500;DHT22;39101;53.478;6.158;2022-10-14T17:30:08;13.60;99.90
51500;DHT22;39101;53.478;6.158;2022-10-14T17:32:34;13.60;99.90
51500;DHT22;39101;53.478;6.158;2022-10-14T17:34:59;13.60;99.90
51500;DHT22;39101;53.478;6.158;2022-10-14T17:37:25;13.60;99.90
51500;DHT22;39101;53.478;6.158;2022-10-14T17:39:51;13.60;99.90
51500;DHT22;39101;53.478;6.158;2022-10-14T17:42:16;13.60;99.90
51500;DHT22;39101;53.478;6.158;2022-10-14T17:44:42;13.60;99.90
51500;DHT22;39101;53.478;6.158;2022-10-14T17:47:07;13.60;99.90
51500;DHT22;39101;53.478;6.158;2022-10-14T17:49:33;13.50;99.90
51500;DHT22;39101;53.478;6.158;2022-10-14T17:52:00;13.60;99.90
51500;DHT22;39101;53.478;6.158;2022-10-14T17:54:27;13.60;99.90
51500;DHT22;39101;53.478;6.158;2022-10-14T17:56:54;13.50;99.90
51500;DHT22;39101;53.478;6.158;2022-10-14T17:59:20;13.60;99.90
51500;DHT22;39101;53.478;6.158;2022-10-14T18:01:45;13.60;99.90
51500;DHT22;39101;53.478;6.158;2022-10-14T18:04:12;13.50;99.90
51500;DHT22;39101;53.478;6.158;2022-10-14T18:06:38;13.60;99.90
51500;DHT22;39101;53.478;6.158;2022-10-14T18:09:06;13.60;99.90
51500;DHT22;39101;53.478;6.158;2022-10-14T18:11:34;13.60;99.90
51500;DHT22;39101;53.478;6.158;2022-10-14T18:14:03;13.50;99.90
51500;DHT22;39101;53.478;6.158;2022-10-14T18:16:35;13.50;99.90